createdAt,value
2022-07-30T00:01:23.845Z,18.67
2022-07-30T00:03:51.573Z,18.81
2022-07-30T00:06:18.402Z,18.69
2022-07-30T00:08:45.487Z,18.64
2022-07-30T00:11:12.991Z,18.53
2022-07-30T00:13:39.484Z,18.47
2022-07-30T00:16:06.017Z,18.50
2022-07-30T00:18:32.473Z,18.46
2022-07-30T00:21:01.229Z,18.29
2022-07-30T00:23:27.714Z,18.37
2022-07-30T00:25:54.213Z,18.32
2022-07-30T00:28:20.738Z,18.30
2022-07-30T00:30:47.211Z,18.24
2022-07-30T00:33:19.292Z,18.40
2022-07-30T00:35:45.972Z,18.25
2022-07-30T00:38:12.467Z,18.19
2022-07-30T00:40:40.115Z,18.33
2022-07-30T00:43:06.577Z,18.05
2022-07-30T00:45:34.398Z,18.08
2022-07-30T00:48:01.450Z,18.05
2022-07-30T00:50:27.915Z,18.10
2022-07-30T00:52:54.390Z,17.98
2022-07-30T00:55:20.848Z,18.12
2022-07-30T00:57:47.568Z,18.12
2022-07-30T01:00:16.578Z,18.21
2022-07-30T01:02:43.878Z,18.12
2022-07-30T01:05:10.769Z,18.17
2022-07-30T01:07:37.694Z,18.07
2022-07-30T01:10:05.977Z,18.10
2022-07-30T01:12:32.786Z,18.14
2022-07-30T01:15:02.808Z,18.06
2022-07-30T01:17:29.398Z,18.11
2022-07-30T01:20:01.772Z,18.02
2022-07-30T01:22:31.434Z,17.97
2022-07-30T01:25:04.149Z,18.05
2022-07-30T01:27:34.705Z,18.09
2022-07-30T01:30:04.694Z,17.96
2022-07-30T01:32:34.313Z,17.94
2022-07-30T01:35:02.349Z,17.97
2022-07-30T01:37:30.712Z,17.89
2022-07-30T01:39:58.583Z,17.92
2022-07-30T01:42:28.710Z,17.91
2022-07-30T01:44:57.349Z,17.86
2022-07-30T01:47:25.322Z,17.89
2022-07-30T01:49:54.643Z,17.88
2022-07-30T01:52:23.300Z,17.95
2022-07-30T01:54:52.413Z,17.90
2022-07-30T01:57:20.974Z,17.90
2022-07-30T01:59:50.570Z,17.91
2022-07-30T02:02:18.132Z,17.91
2022-07-30T02:04:44.946Z,17.88
2022-07-30T02:07:21.032Z,17.78
2022-07-30T02:09:59.503Z,17.76
2022-07-30T02:12:29.953Z,17.72
2022-07-30T02:15:02.432Z,17.72
2022-07-30T02:17:39.808Z,17.66
2022-07-30T02:20:14.334Z,17.73
2022-07-30T02:22:45.837Z,17.79
2022-07-30T02:25:17.381Z,17.69
2022-07-30T02:27:48.758Z,17.67
2022-07-30T02:30:15.569Z,17.60
2022-07-30T02:32:44.818Z,17.62
2022-07-30T02:35:18.876Z,17.69
2022-07-30T02:37:48.138Z,17.61
2022-07-30T02:40:16.855Z,17.64
2022-07-30T02:42:46.344Z,17.65
2022-07-30T02:45:15.861Z,17.66
2022-07-30T02:47:44.675Z,17.62
2022-07-30T02:50:13.201Z,17.54
2022-07-30T02:52:41.503Z,17.51
2022-07-30T02:55:12.285Z,17.43
2022-07-30T02:57:43.501Z,17.37
2022-07-30T03:00:11.791Z,17.40
2022-07-30T03:02:39.473Z,17.34
2022-07-30T03:05:08.673Z,17.41
2022-07-30T03:07:36.515Z,17.42
2022-07-30T03:10:05.237Z,17.38
2022-07-30T03:12:34.449Z,17.37
2022-07-30T03:15:01.316Z,17.30
2022-07-30T03:17:32.847Z,17.33
2022-07-30T03:20:01.099Z,17.30
2022-07-30T03:22:32.887Z,17.32
2022-07-30T03:24:59.996Z,17.34
2022-07-30T03:27:27.182Z,17.40
2022-07-30T03:29:55.640Z,17.26
2022-07-30T03:32:25.927Z,17.24
2022-07-30T03:34:54.446Z,17.29
2022-07-30T03:37:22.798Z,17.32
2022-07-30T03:39:49.402Z,17.27
2022-07-30T03:42:16.685Z,17.15
2022-07-30T03:44:45.789Z,17.18
2022-07-30T03:47:13.234Z,17.16
2022-07-30T03:49:41.284Z,17.11
2022-07-30T03:52:08.619Z,17.14
2022-07-30T03:54:35.727Z,17.16
2022-07-30T03:57:04.062Z,17.12
2022-07-30T03:59:31.302Z,17.11
2022-07-30T04:02:03.943Z,17.05
2022-07-30T04:04:33.455Z,17.09
2022-07-30T04:07:00.446Z,17.01
2022-07-30T04:09:27.173Z,17.06
2022-07-30T04:11:53.693Z,17.14
2022-07-30T04:14:20.261Z,17.14
2022-07-30T04:16:51.846Z,17.12
2022-07-30T04:19:24.316Z,17.11
2022-07-30T04:21:53.644Z,17.08
2022-07-30T04:24:21.052Z,17.11
2022-07-30T04:26:48.918Z,17.15
2022-07-30T04:29:18.187Z,17.21
2022-07-30T04:31:45.753Z,17.22
2022-07-30T04:34:15.426Z,17.19
2022-07-30T04:36:42.819Z,17.24
2022-07-30T04:39:10.103Z,17.20
2022-07-30T04:41:49.087Z,17.08
2022-07-30T04:44:20.392Z,17.09
2022-07-30T04:46:47.820Z,17.05
2022-07-30T04:49:17.428Z,17.09
2022-07-30T04:51:45.380Z,17.12
2022-07-30T04:54:15.530Z,17.13
2022-07-30T04:57:00.826Z,17.04
2022-07-30T04:59:27.703Z,17.08
2022-07-30T05:01:57.354Z,17.04
2022-07-30T05:04:25.219Z,17.08
2022-07-30T05:06:53.108Z,17.06
2022-07-30T05:09:19.995Z,16.99
2022-07-30T05:11:54.151Z,17.06
2022-07-30T05:14:21.909Z,16.96
2022-07-30T05:16:49.103Z,16.91
2022-07-30T05:19:16.005Z,16.97
2022-07-30T05:21:42.468Z,17.09
2022-07-30T05:24:09.017Z,17.07
2022-07-30T05:26:35.778Z,17.11
2022-07-30T05:29:02.924Z,17.08
2022-07-30T05:31:31.224Z,17.13
2022-07-30T05:34:03.023Z,17.04
2022-07-30T05:36:30.324Z,17.10
2022-07-30T05:38:56.801Z,17.15
2022-07-30T05:41:31.840Z,17.20
2022-07-30T05:43:59.236Z,17.18
2022-07-30T05:46:26.011Z,17.18
2022-07-30T05:48:52.669Z,17.23
2022-07-30T05:51:20.733Z,17.22
2022-07-30T05:53:47.285Z,17.23
2022-07-30T05:56:13.954Z,17.33
2022-07-30T05:58:40.531Z,17.31
2022-07-30T06:01:07.097Z,17.46
2022-07-30T06:03:34.800Z,17.41
2022-07-30T06:06:04.293Z,17.47
2022-07-30T06:08:31.013Z,17.55
2022-07-30T06:10:57.629Z,17.61
2022-07-30T06:13:24.594Z,17.61
2022-07-30T06:15:51.223Z,17.70
2022-07-30T06:18:17.765Z,17.83
2022-07-30T06:20:45.110Z,17.93
2022-07-30T06:23:12.192Z,17.89
2022-07-30T06:25:39.314Z,18.00
2022-07-30T06:28:34.727Z,18.10
2022-07-30T06:30:54.181Z,18.10
2022-07-30T06:33:20.717Z,18.23
2022-07-30T06:35:48.857Z,18.35
2022-07-30T06:38:15.427Z,18.37
2022-07-30T06:40:41.906Z,18.55
2022-07-30T06:43:08.392Z,18.71
2022-07-30T06:45:34.882Z,18.86
2022-07-30T06:48:01.618Z,19.03
2022-07-30T06:50:28.186Z,19.13
2022-07-30T06:52:54.824Z,19.27
2022-07-30T06:55:21.421Z,19.40
2022-07-30T06:57:47.939Z,19.48
2022-07-30T07:00:14.823Z,19.68
2022-07-30T07:02:42.679Z,19.73
2022-07-30T07:05:09.742Z,19.91
2022-07-30T07:07:42.978Z,19.99
2022-07-30T07:10:13.021Z,20.11
2022-07-30T07:12:39.544Z,20.21
2022-07-30T07:15:06.791Z,20.38
2022-07-30T07:17:33.291Z,20.49
2022-07-30T07:20:02.645Z,20.65
2022-07-30T07:22:30.081Z,20.80
2022-07-30T07:24:56.557Z,20.90
2022-07-30T07:27:23.575Z,20.97
2022-07-30T07:30:01.355Z,21.01
2022-07-30T07:32:31.769Z,21.04
2022-07-30T07:34:58.252Z,21.02
2022-07-30T07:37:24.706Z,21.09
2022-07-30T07:39:51.234Z,21.08
2022-07-30T07:42:17.743Z,21.23
2022-07-30T07:44:44.282Z,21.19
2022-07-30T07:47:10.813Z,21.30
2022-07-30T07:49:37.296Z,21.44
2022-07-30T07:52:03.977Z,21.52
2022-07-30T07:54:30.570Z,21.61
2022-07-30T07:56:57.189Z,21.72
2022-07-30T07:59:27.789Z,21.72
2022-07-30T08:02:07.962Z,21.90
2022-07-30T08:04:35.375Z,22.00
2022-07-30T08:07:02.571Z,22.08
2022-07-30T08:09:43.520Z,21.98
2022-07-30T08:12:11.867Z,22.22
2022-07-30T08:14:38.418Z,22.15
2022-07-30T08:17:05.541Z,22.29
2022-07-30T08:19:32.577Z,22.25
2022-07-30T08:21:59.720Z,22.25
2022-07-30T08:24:26.956Z,22.36
2022-07-30T08:26:53.661Z,22.35
2022-07-30T08:29:20.241Z,22.44
2022-07-30T08:31:46.818Z,22.30
2022-07-30T08:34:13.667Z,22.54
2022-07-30T08:36:43.708Z,22.60
2022-07-30T08:39:10.757Z,22.69
2022-07-30T08:41:37.538Z,22.73
2022-07-30T08:44:12.833Z,22.86
2022-07-30T08:46:46.897Z,22.86
2022-07-30T08:49:15.071Z,22.87
2022-07-30T08:51:42.146Z,22.82
2022-07-30T08:54:09.133Z,22.62
2022-07-30T08:56:35.649Z,22.81
2022-07-30T08:59:02.579Z,22.77
2022-07-30T09:01:29.209Z,22.64
2022-07-30T09:03:55.743Z,22.65
2022-07-30T09:06:22.360Z,22.65
2022-07-30T09:08:49.310Z,22.78
2022-07-30T09:11:16.191Z,22.79
2022-07-30T09:13:44.529Z,22.79
2022-07-30T09:16:23.015Z,22.96
2022-07-30T09:18:50.818Z,23.05
2022-07-30T09:21:21.439Z,23.05
2022-07-30T09:24:17.101Z,23.14
2022-07-30T09:26:56.010Z,23.25
2022-07-30T09:29:25.231Z,23.11
2022-07-30T09:31:57.278Z,23.11
2022-07-30T09:34:25.863Z,23.10
2022-07-30T09:36:52.430Z,23.07
2022-07-30T09:39:31.680Z,23.24
2022-07-30T09:41:58.715Z,23.28
2022-07-30T09:44:27.637Z,23.39
2022-07-30T09:46:54.244Z,23.50
2022-07-30T09:49:22.994Z,23.57
2022-07-30T09:51:59.494Z,23.61
2022-07-30T09:54:51.779Z,23.62
2022-07-30T09:57:26.708Z,23.68
2022-07-30T10:00:01.259Z,23.65
2022-07-30T10:02:32.853Z,23.76
2022-07-30T10:05:15.101Z,23.69
2022-07-30T10:07:52.859Z,23.79
2022-07-30T10:10:25.583Z,23.84
2022-07-30T10:12:56.954Z,23.75
2022-07-30T10:15:25.266Z,23.92
2022-07-30T10:17:54.597Z,23.90
2022-07-30T10:20:21.424Z,24.01
2022-07-30T10:22:49.401Z,24.03
2022-07-30T10:25:20.838Z,24.10
2022-07-30T10:27:50.323Z,24.09
2022-07-30T10:30:27.608Z,24.13
2022-07-30T10:32:56.708Z,24.13
2022-07-30T10:35:34.602Z,24.09
2022-07-30T10:38:13.461Z,24.14
2022-07-30T10:40:48.668Z,24.14
2022-07-30T10:43:33.667Z,24.03
2022-07-30T10:46:10.731Z,24.12
2022-07-30T10:48:51.494Z,24.13
2022-07-30T10:51:34.486Z,24.14
2022-07-30T10:54:01.482Z,24.11
2022-07-30T10:56:28.063Z,24.15
2022-07-30T10:59:10.093Z,24.17
2022-07-30T11:01:53.360Z,24.20
2022-07-30T11:04:29.762Z,24.25
2022-07-30T11:07:21.203Z,24.28
2022-07-30T11:09:49.793Z,24.33
2022-07-30T11:12:41.494Z,24.28
2022-07-30T11:15:18.751Z,24.35
2022-07-30T11:18:12.117Z,24.36
2022-07-30T11:20:40.651Z,24.42
2022-07-30T11:23:16.274Z,24.28
2022-07-30T11:25:51.554Z,24.27
2022-07-30T11:28:49.150Z,24.40
2022-07-30T11:31:54.926Z,24.35
2022-07-30T11:34:24.086Z,24.40
2022-07-30T11:37:18.567Z,24.36
2022-07-30T11:39:55.242Z,24.38
2022-07-30T11:42:35.454Z,24.28
2022-07-30T11:45:18.453Z,24.40
2022-07-30T11:47:47.587Z,24.41
2022-07-30T11:50:34.652Z,24.45
2022-07-30T11:53:05.114Z,24.33
2022-07-30T11:55:35.862Z,24.46
2022-07-30T11:58:11.303Z,24.41
2022-07-30T12:00:41.975Z,24.45
2022-07-30T12:03:13.761Z,24.46
2022-07-30T12:05:41.348Z,24.40
2022-07-30T12:08:31.614Z,24.41
2022-07-30T12:11:01.261Z,24.48
2022-07-30T12:13:43.592Z,24.40
2022-07-30T12:16:19.179Z,24.49
2022-07-30T12:18:47.288Z,24.46
2022-07-30T12:21:17.787Z,24.49
2022-07-30T12:24:01.285Z,24.54
2022-07-30T12:26:30.698Z,24.55
2022-07-30T12:29:13.384Z,24.41
2022-07-30T12:31:41.339Z,24.41
2022-07-30T12:34:24.520Z,24.22
2022-07-30T12:36:51.577Z,24.22
2022-07-30T12:39:23.662Z,24.35
2022-07-30T12:41:52.328Z,24.24
2022-07-30T12:44:41.896Z,24.24
2022-07-30T12:47:23.919Z,24.40
2022-07-30T12:49:53.450Z,24.24
2022-07-30T12:52:31.284Z,24.17
2022-07-30T12:55:04.593Z,24.24
2022-07-30T12:58:07.158Z,24.37
2022-07-30T13:00:44.001Z,24.46
2022-07-30T13:03:24.208Z,24.50
2022-07-30T13:05:55.376Z,24.49
2022-07-30T13:08:47.921Z,24.46
2022-07-30T13:11:15.554Z,24.41
2022-07-30T13:13:42.306Z,24.35
2022-07-30T13:16:08.856Z,24.15
2022-07-30T13:18:36.690Z,24.02
2022-07-30T13:21:05.139Z,24.03
2022-07-30T13:23:32.193Z,24.23
2022-07-30T13:25:58.879Z,24.36
2022-07-30T13:28:25.674Z,24.35
2022-07-30T13:30:52.458Z,24.44
2022-07-30T13:33:18.966Z,24.45
2022-07-30T13:35:47.188Z,24.34
2022-07-30T13:38:13.722Z,24.38
2022-07-30T13:40:41.013Z,24.50
2022-07-30T13:43:08.029Z,24.59
2022-07-30T13:45:34.989Z,24.66
2022-07-30T13:48:01.917Z,24.62
2022-07-30T13:50:28.568Z,24.73
2022-07-30T13:52:58.858Z,24.59
2022-07-30T13:55:28.848Z,24.61
2022-07-30T13:57:55.377Z,24.53
2022-07-30T14:00:23.208Z,24.45
2022-07-30T14:02:49.786Z,24.47
2022-07-30T14:05:16.533Z,24.49
2022-07-30T14:07:43.198Z,24.53
2022-07-30T14:10:09.719Z,24.53
2022-07-30T14:12:36.328Z,24.52
2022-07-30T14:15:03.071Z,24.47
2022-07-30T14:17:29.538Z,24.38
2022-07-30T14:19:56.290Z,24.36
2022-07-30T14:22:23.325Z,24.44
2022-07-30T14:24:49.929Z,24.43
2022-07-30T14:27:19.715Z,24.32
2022-07-30T14:29:48.608Z,24.25
2022-07-30T14:32:15.109Z,24.27
2022-07-30T14:34:41.635Z,24.34
2022-07-30T14:37:16.227Z,24.35
2022-07-30T14:39:42.715Z,24.35
2022-07-30T14:42:09.206Z,24.34
2022-07-30T14:44:35.736Z,24.49
2022-07-30T14:47:02.770Z,24.64
2022-07-30T14:49:29.761Z,24.60
2022-07-30T14:51:56.261Z,24.68
2022-07-30T14:54:23.209Z,24.58
2022-07-30T14:56:52.562Z,24.73
2022-07-30T14:59:21.444Z,24.77
2022-07-30T15:01:47.999Z,24.83
2022-07-30T15:04:14.892Z,24.86
2022-07-30T15:06:41.914Z,24.81
2022-07-30T15:09:09.010Z,24.80
2022-07-30T15:12:04.411Z,24.67
2022-07-30T15:14:22.615Z,24.78
2022-07-30T15:16:51.326Z,24.80
2022-07-30T15:19:17.822Z,24.74
2022-07-30T15:21:44.849Z,24.75
2022-07-30T15:24:11.345Z,24.65
2022-07-30T15:26:37.806Z,24.58
2022-07-30T15:29:04.272Z,24.58
2022-07-30T15:31:30.741Z,24.55
2022-07-30T15:33:57.273Z,24.63
2022-07-30T15:36:23.900Z,24.70
2022-07-30T15:38:50.349Z,24.67
2022-07-30T15:41:18.019Z,24.64
2022-07-30T15:43:44.489Z,24.61
2022-07-30T15:46:11.051Z,24.74
2022-07-30T15:48:37.825Z,24.67
2022-07-30T15:51:05.118Z,24.74
2022-07-30T15:53:32.988Z,24.74
2022-07-30T15:56:00.606Z,24.70
2022-07-30T15:58:27.144Z,24.64
2022-07-30T16:00:53.816Z,24.67
2022-07-30T16:03:20.454Z,24.62
2022-07-30T16:05:51.684Z,24.58
2022-07-30T16:08:19.869Z,24.49
2022-07-30T16:10:46.455Z,24.31
2022-07-30T16:13:13.053Z,24.25
2022-07-30T16:15:39.728Z,24.28
2022-07-30T16:18:06.377Z,24.23
2022-07-30T16:20:32.932Z,24.14
2022-07-30T16:22:59.778Z,24.11
2022-07-30T16:25:26.833Z,24.05
2022-07-30T16:27:53.331Z,23.94
2022-07-30T16:30:20.131Z,23.98
2022-07-30T16:32:46.717Z,23.98
2022-07-30T16:35:13.596Z,24.04
2022-07-30T16:37:40.505Z,24.06
2022-07-30T16:40:07.446Z,24.04
2022-07-30T16:42:33.896Z,24.07
2022-07-30T16:45:00.399Z,24.01
2022-07-30T16:47:26.912Z,24.02
2022-07-30T16:50:00.280Z,24.07
2022-07-30T16:52:26.878Z,24.01
2022-07-30T16:54:54.199Z,24.00
2022-07-30T16:57:21.058Z,23.94
2022-07-30T16:59:47.747Z,23.89
2022-07-30T17:02:14.271Z,23.68
2022-07-30T17:04:41.651Z,23.70
2022-07-30T17:07:08.390Z,23.61
2022-07-30T17:09:36.994Z,23.62
2022-07-30T17:12:06.260Z,23.51
2022-07-30T17:14:40.395Z,23.50
2022-07-30T17:17:10.769Z,23.43
2022-07-30T17:19:40.074Z,23.48
2022-07-30T17:22:06.763Z,23.42
2022-07-30T17:24:33.235Z,23.29
2022-07-30T17:26:59.889Z,23.14
2022-07-30T17:29:26.438Z,23.08
2022-07-30T17:31:52.917Z,22.97
2022-07-30T17:34:22.096Z,22.96
2022-07-30T17:36:52.493Z,22.75
2022-07-30T17:40:04.055Z,22.75
2022-07-30T17:42:09.416Z,22.84
2022-07-30T17:44:36.582Z,22.85
2022-07-30T17:47:03.312Z,22.86
2022-07-30T17:49:29.994Z,22.83
2022-07-30T17:51:56.882Z,22.64
2022-07-30T17:54:23.509Z,22.57
2022-07-30T17:56:50.144Z,22.35
2022-07-30T17:59:16.712Z,22.39
2022-07-30T18:01:43.339Z,22.27
2022-07-30T18:04:10.041Z,22.02
2022-07-30T18:06:36.813Z,21.88
2022-07-30T18:09:05.315Z,21.79
2022-07-30T18:11:32.288Z,21.73
2022-07-30T18:13:58.949Z,21.53
2022-07-30T18:16:26.216Z,21.33
2022-07-30T18:18:52.846Z,21.28
2022-07-30T18:21:19.398Z,21.16
2022-07-30T18:23:46.015Z,20.97
2022-07-30T18:26:12.707Z,20.91
2022-07-30T18:28:41.061Z,20.77
2022-07-30T18:31:07.591Z,20.59
2022-07-30T18:33:34.126Z,20.48
2022-07-30T18:36:00.880Z,20.56
2022-07-30T18:38:27.492Z,20.42
2022-07-30T18:41:00.005Z,20.41
2022-07-30T18:43:29.160Z,20.30
2022-07-30T18:45:57.838Z,20.15
2022-07-30T18:48:25.046Z,20.01
2022-07-30T18:50:52.986Z,20.00
2022-07-30T18:53:19.988Z,19.97
2022-07-30T18:55:47.433Z,19.82
2022-07-30T18:58:14.067Z,19.64
2022-07-30T19:00:44.073Z,19.57
2022-07-30T19:03:16.296Z,19.47
2022-07-30T19:05:43.227Z,19.51
2022-07-30T19:08:10.326Z,19.43
2022-07-30T19:10:37.483Z,19.85
2022-07-30T19:13:04.420Z,20.05
2022-07-30T19:15:31.039Z,19.92
2022-07-30T19:17:58.559Z,19.81
2022-07-30T19:20:26.533Z,19.84
2022-07-30T19:23:04.586Z,19.69
2022-07-30T19:25:33.150Z,19.70
2022-07-30T19:28:01.417Z,19.51
2022-07-30T19:30:32.256Z,19.47
2022-07-30T19:33:14.701Z,19.30
2022-07-30T19:35:42.703Z,19.11
2022-07-30T19:38:14.357Z,18.94
2022-07-30T19:40:48.785Z,18.84
2022-07-30T19:43:15.917Z,18.60
2022-07-30T19:45:47.204Z,18.46
2022-07-30T19:48:15.126Z,18.23
2022-07-30T19:50:55.871Z,18.08
2022-07-30T19:53:22.381Z,17.89
2022-07-30T19:55:48.928Z,17.75
2022-07-30T19:58:18.963Z,17.58
2022-07-30T20:00:49.292Z,17.41
2022-07-30T20:03:16.715Z,17.36
2022-07-30T20:05:57.552Z,17.31
2022-07-30T20:08:26.978Z,17.12
2022-07-30T20:10:53.593Z,16.97
2022-07-30T20:13:25.300Z,16.86
2022-07-30T20:16:12.235Z,16.90
2022-07-30T20:18:39.607Z,16.76
2022-07-30T20:21:08.370Z,16.67
2022-07-30T20:23:39.663Z,16.71
2022-07-30T20:26:12.449Z,16.51
2022-07-30T20:28:44.933Z,16.37
2022-07-30T20:31:12.534Z,16.34
2022-07-30T20:33:40.054Z,16.30
2022-07-30T20:36:09.968Z,16.26
2022-07-30T20:38:38.995Z,16.11
2022-07-30T20:41:09.940Z,16.21
2022-07-30T20:43:46.215Z,16.03
2022-07-30T20:46:23.134Z,16.04
2022-07-30T20:49:08.261Z,15.89
2022-07-30T20:51:37.808Z,15.78
2022-07-30T20:54:04.530Z,15.79
2022-07-30T20:56:31.079Z,15.74
2022-07-30T20:58:57.553Z,15.81
2022-07-30T21:01:24.084Z,15.78
2022-07-30T21:03:50.692Z,15.65
2022-07-30T21:06:17.263Z,15.94
2022-07-30T21:08:43.826Z,16.37
2022-07-30T21:11:10.372Z,16.50
2022-07-30T21:13:39.467Z,16.26
2022-07-30T21:16:15.709Z,16.18
2022-07-30T21:18:54.570Z,16.13
2022-07-30T21:21:29.118Z,15.94
2022-07-30T21:24:12.289Z,15.83
2022-07-30T21:26:42.403Z,15.67
2022-07-30T21:29:09.664Z,15.43
2022-07-30T21:31:59.046Z,15.39
2022-07-30T21:34:26.124Z,15.31
2022-07-30T21:36:53.518Z,15.34
2022-07-30T21:39:20.102Z,15.37
2022-07-30T21:41:55.749Z,15.34
2022-07-30T21:44:22.356Z,15.36
2022-07-30T21:46:50.431Z,15.22
2022-07-30T21:49:17.325Z,15.11
2022-07-30T21:51:44.486Z,15.10
2022-07-30T21:54:11.167Z,15.04
2022-07-30T21:56:41.644Z,15.02
2022-07-30T21:59:08.568Z,14.97
2022-07-30T22:01:38.697Z,14.88
2022-07-30T22:06:54.550Z,14.72
2022-07-30T22:12:10.263Z,14.62
2022-07-30T22:14:39.673Z,14.45
2022-07-30T22:17:14.782Z,14.42
2022-07-30T22:19:49.946Z,14.29
2022-07-30T22:22:26.134Z,14.25
2022-07-30T22:24:55.120Z,14.15
2022-07-30T22:27:23.647Z,14.19
2022-07-30T22:29:50.127Z,14.00
2022-07-30T22:32:16.870Z,13.96
2022-07-30T22:34:44.907Z,14.14
2022-07-30T22:39:58.178Z,14.12
2022-07-30T22:42:24.959Z,13.99
2022-07-30T22:44:54.852Z,13.96
2022-07-30T22:47:52.634Z,14.10
2022-07-30T22:50:09.738Z,13.94
2022-07-30T22:52:49.068Z,14.07
2022-07-30T22:55:22.762Z,14.01
2022-07-30T22:57:50.231Z,14.00
2022-07-30T23:03:04.887Z,14.00
2022-07-30T23:05:35.203Z,14.02
2022-07-30T23:08:02.898Z,13.98
2022-07-30T23:10:29.591Z,14.01
2022-07-30T23:12:28.377Z,14.78
2022-07-30T23:12:30.877Z,14.04
2022-07-30T23:12:31.871Z,14.78
2022-07-30T23:12:32.757Z,14.06
2022-07-30T23:12:56.295Z,13.94
2022-07-30T23:15:23.097Z,13.92
2022-07-30T23:17:49.615Z,13.81
2022-07-30T23:20:18.574Z,13.71
2022-07-30T23:22:45.086Z,13.81
2022-07-30T23:25:12.639Z,13.70
2022-07-30T23:27:39.660Z,13.64
2022-07-30T23:30:10.566Z,13.66
2022-07-30T23:32:38.015Z,13.57
2022-07-30T23:35:05.957Z,13.57
2022-07-30T23:37:37.865Z,13.56
2022-07-30T23:40:15.469Z,13.55
2022-07-30T23:42:41.927Z,13.58
2022-07-30T23:45:08.675Z,13.53
2022-07-30T23:47:56.505Z,13.52
2022-07-30T23:50:22.180Z,13.57
2022-07-30T23:52:48.636Z,13.47
2022-07-30T23:55:15.208Z,13.44
2022-07-30T23:57:42.283Z,13.42
